Terminal Aerodrome Forecast
Issued by NWS Greer, SC

Current Version | Previous Version | Text Only | Print | Product List | Glossary On
Versions: 1 2 3 4 5 6 7 8 9 10 11 12 13 14 15 16 17 18 19 20 21
000
FTUS42 KGSP 271122
TAFCLT
TAF
KCLT 271122Z 2712/2812 18003KT P6SM FEW060 SCT250
     FM271800 19006KT P6SM BKN060
      TEMPO 2722/2802 4SM TSRA BKN040CB
     FM280200 20005KT P6SM -SHRA OVC050 PROB30 2802/2806 4SM TSRA
      OVC040CB
     FM280600 22003KT P6SM VCSH OVC060=

USA.gov is the U.S. government's official web portal to all federal, state and local government web resources and services.